createdAt,value
2018-07-31T00:00:55.027Z,73.83
2018-07-31T00:03:25.555Z,74.29
2018-07-31T00:05:57.100Z,73.78
2018-07-31T00:08:28.387Z,73.93
2018-07-31T00:10:58.870Z,74.25
2018-07-31T00:13:29.244Z,74.34
2018-07-31T00:16:01.243Z,75.35
2018-07-31T00:18:31.606Z,75.31
2018-07-31T00:21:01.971Z,75.94
2018-07-31T00:23:32.365Z,75.33
2018-07-31T00:26:02.829Z,74.39
2018-07-31T00:28:33.241Z,74.12
2018-07-31T00:31:03.986Z,73.70
2018-07-31T00:33:34.784Z,73.01
2018-07-31T00:36:05.496Z,72.62
2018-07-31T00:38:36.472Z,72.52
2018-07-31T00:41:07.163Z,71.55
2018-07-31T00:43:37.648Z,70.29
2018-07-31T00:46:08.018Z,70.05
2018-07-31T00:48:38.489Z,69.28
2018-07-31T00:51:08.984Z,69.55
2018-07-31T00:53:39.575Z,69.08
2018-07-31T00:56:10.113Z,68.84
2018-07-31T00:58:40.460Z,69.02
2018-07-31T01:01:10.824Z,68.98
2018-07-31T01:03:41.388Z,69.20
2018-07-31T01:06:11.915Z,68.98
2018-07-31T01:08:42.369Z,69.00
2018-07-31T01:11:12.717Z,68.99
2018-07-31T01:13:43.216Z,69.11
2018-07-31T01:16:13.784Z,68.87
2018-07-31T01:18:44.177Z,68.84
2018-07-31T01:21:14.728Z,69.04
2018-07-31T01:23:45.142Z,70.87
2018-07-31T01:26:15.715Z,72.30
2018-07-31T01:28:46.144Z,73.43
2018-07-31T01:31:16.679Z,73.55
2018-07-31T01:33:47.234Z,72.94
2018-07-31T01:36:17.869Z,72.03
2018-07-31T01:38:48.396Z,72.52
2018-07-31T01:41:19.000Z,72.54
2018-07-31T01:43:49.387Z,71.74
2018-07-31T01:46:19.846Z,73.38
2018-07-31T01:48:50.253Z,73.41
2018-07-31T01:51:20.711Z,74.10
2018-07-31T01:53:51.233Z,73.48
2018-07-31T01:56:21.833Z,73.84
2018-07-31T01:58:52.349Z,74.64
2018-07-31T02:01:22.902Z,75.58
2018-07-31T02:03:53.444Z,75.90
2018-07-31T02:06:26.794Z,75.12
2018-07-31T02:08:58.476Z,74.55
2018-07-31T02:11:29.312Z,76.24
2018-07-31T02:13:59.565Z,77.01
2018-07-31T02:16:29.877Z,77.15
2018-07-31T02:19:00.863Z,77.46
2018-07-31T02:21:31.222Z,78.57
2018-07-31T02:24:01.553Z,78.36
2018-07-31T02:26:31.861Z,78.22
2018-07-31T02:29:02.232Z,77.34
2018-07-31T02:31:32.567Z,78.66
2018-07-31T02:34:02.980Z,78.92
2018-07-31T02:36:33.614Z,79.69
2018-07-31T02:39:04.440Z,79.84
2018-07-31T02:41:34.832Z,80.33
2018-07-31T02:44:05.402Z,81.19
2018-07-31T02:46:35.666Z,80.93
2018-07-31T02:49:06.182Z,79.32
2018-07-31T02:51:36.610Z,78.81
2018-07-31T02:54:07.698Z,78.58
2018-07-31T02:56:38.130Z,79.55
2018-07-31T02:59:08.396Z,79.25
2018-07-31T03:01:38.811Z,79.54
2018-07-31T03:04:09.035Z,79.13
2018-07-31T03:06:39.535Z,80.07
2018-07-31T03:09:10.396Z,80.13
2018-07-31T03:11:40.726Z,80.08
2018-07-31T03:14:11.025Z,79.86
2018-07-31T03:16:41.596Z,79.72
2018-07-31T03:19:11.924Z,79.24
2018-07-31T03:21:42.436Z,79.11
2018-07-31T03:24:12.870Z,78.76
2018-07-31T03:26:43.363Z,77.80
2018-07-31T03:29:13.766Z,77.61
2018-07-31T03:31:44.258Z,77.48
2018-07-31T03:34:15.073Z,77.12
2018-07-31T03:36:45.466Z,76.46
2018-07-31T03:39:15.871Z,75.78
2018-07-31T03:41:46.150Z,75.27
2018-07-31T03:44:16.665Z,75.16
2018-07-31T03:46:47.063Z,73.76
2018-07-31T03:49:17.583Z,73.38
2018-07-31T03:51:47.830Z,72.31
2018-07-31T03:54:18.313Z,73.96
2018-07-31T03:56:48.598Z,76.57
2018-07-31T03:59:18.912Z,77.22
2018-07-31T04:01:49.167Z,76.85
2018-07-31T04:04:19.498Z,75.49
2018-07-31T04:06:49.909Z,75.01
2018-07-31T04:09:20.262Z,74.24
2018-07-31T04:11:50.624Z,72.07
2018-07-31T04:14:20.883Z,72.37
2018-07-31T04:16:51.272Z,73.32
2018-07-31T04:19:21.763Z,74.55
2018-07-31T04:21:52.177Z,75.49
2018-07-31T04:24:22.600Z,74.69
2018-07-31T04:26:52.917Z,74.66
2018-07-31T04:29:23.235Z,72.76
2018-07-31T04:31:53.610Z,69.73
2018-07-31T04:34:24.017Z,66.31
2018-07-31T04:36:54.420Z,64.92
2018-07-31T04:39:24.791Z,63.18
2018-07-31T04:41:55.176Z,62.74
2018-07-31T04:44:25.564Z,66.15
2018-07-31T04:46:56.135Z,67.17
2018-07-31T04:49:26.458Z,66.16
2018-07-31T04:51:57.391Z,66.99
2018-07-31T04:54:27.800Z,66.84
2018-07-31T04:56:58.181Z,66.27
2018-07-31T04:59:28.463Z,63.89
2018-07-31T05:01:59.086Z,63.19
2018-07-31T05:04:29.646Z,61.11
2018-07-31T05:06:59.997Z,59.71
2018-07-31T05:09:30.561Z,59.73
2018-07-31T05:12:01.313Z,61.08
2018-07-31T05:14:31.717Z,60.16
2018-07-31T05:17:02.052Z,58.00
2018-07-31T05:19:32.536Z,54.39
2018-07-31T05:22:03.299Z,55.39
2018-07-31T05:24:33.549Z,57.50
2018-07-31T05:27:04.272Z,55.75
2018-07-31T05:29:34.714Z,55.12
2018-07-31T05:32:05.309Z,55.53
2018-07-31T05:34:35.659Z,56.59
2018-07-31T05:37:06.337Z,56.18
2018-07-31T05:39:36.662Z,54.59
2018-07-31T05:42:06.975Z,54.11
2018-07-31T05:44:37.418Z,51.81
2018-07-31T05:47:07.892Z,48.48
2018-07-31T05:49:38.362Z,48.49
2018-07-31T05:52:09.006Z,49.05
2018-07-31T05:54:39.541Z,49.20
2018-07-31T05:57:09.859Z,48.19
2018-07-31T05:59:40.361Z,45.33
2018-07-31T06:02:11.696Z,43.30
2018-07-31T06:04:42.475Z,41.28
2018-07-31T06:07:13.039Z,39.34
2018-07-31T06:09:43.468Z,37.43
2018-07-31T06:12:13.832Z,36.84
2018-07-31T06:14:44.394Z,36.08
2018-07-31T06:17:14.912Z,36.98
2018-07-31T06:19:45.289Z,36.27
2018-07-31T06:22:15.891Z,36.20
2018-07-31T06:24:46.484Z,34.05
2018-07-31T06:27:16.846Z,33.64
2018-07-31T06:29:47.354Z,33.91
2018-07-31T06:32:17.566Z,35.49
2018-07-31T06:34:48.363Z,36.30
2018-07-31T06:37:18.896Z,37.20
2018-07-31T06:39:49.199Z,37.88
2018-07-31T06:42:19.766Z,35.98
2018-07-31T06:44:50.256Z,34.98
2018-07-31T06:47:20.820Z,33.23
2018-07-31T06:49:51.317Z,33.68
2018-07-31T06:52:21.682Z,34.13
2018-07-31T06:54:52.212Z,32.87
2018-07-31T06:57:22.520Z,30.35
2018-07-31T06:59:52.862Z,32.34
2018-07-31T07:02:23.175Z,32.17
2018-07-31T07:04:53.553Z,31.35
2018-07-31T07:07:23.804Z,30.93
2018-07-31T07:09:54.295Z,30.04
2018-07-31T07:12:24.687Z,30.55
2018-07-31T07:14:55.061Z,30.05
2018-07-31T07:17:25.554Z,30.32
2018-07-31T07:19:56.042Z,29.74
2018-07-31T07:22:26.377Z,29.02
2018-07-31T07:24:56.831Z,28.38
2018-07-31T07:27:27.259Z,30.02
2018-07-31T07:29:58.053Z,30.74
2018-07-31T07:32:28.372Z,28.57
2018-07-31T07:34:58.941Z,27.57
2018-07-31T07:37:29.317Z,29.37
2018-07-31T07:39:59.612Z,28.95
2018-07-31T07:42:30.064Z,28.34
2018-07-31T07:45:00.463Z,27.56
2018-07-31T07:47:30.802Z,26.44
2018-07-31T07:50:01.206Z,26.09
2018-07-31T07:52:31.633Z,28.32
2018-07-31T07:55:01.908Z,29.68
2018-07-31T07:57:32.538Z,28.50
2018-07-31T08:00:03.073Z,28.26
2018-07-31T08:02:33.587Z,27.42
2018-07-31T08:05:04.074Z,27.25
2018-07-31T08:07:34.281Z,28.01
2018-07-31T08:10:05.122Z,27.89
2018-07-31T08:12:35.502Z,27.62
2018-07-31T08:15:06.438Z,26.61
2018-07-31T08:17:36.735Z,27.75
2018-07-31T08:20:07.848Z,28.04
2018-07-31T08:22:38.249Z,27.45
2018-07-31T08:25:08.803Z,25.09
2018-07-31T08:27:39.140Z,26.21
2018-07-31T08:30:09.507Z,26.63
2018-07-31T08:32:40.083Z,27.15
2018-07-31T08:35:10.754Z,28.01
2018-07-31T08:37:41.103Z,27.17
2018-07-31T08:40:11.509Z,26.22
2018-07-31T08:42:41.816Z,26.01
2018-07-31T08:45:12.160Z,25.77
2018-07-31T08:47:42.651Z,27.39
2018-07-31T08:50:12.931Z,25.18
2018-07-31T08:52:43.532Z,25.52
2018-07-31T08:55:13.908Z,26.39
2018-07-31T08:57:44.408Z,24.79
2018-07-31T09:00:14.868Z,25.05
2018-07-31T09:02:45.356Z,24.85
2018-07-31T09:05:15.732Z,24.64
2018-07-31T09:07:46.089Z,25.56
2018-07-31T09:10:16.618Z,24.54
2018-07-31T09:12:46.990Z,24.66
2018-07-31T09:15:17.503Z,24.24
2018-07-31T09:17:47.891Z,24.96
2018-07-31T09:20:18.267Z,25.45
2018-07-31T09:22:49.678Z,23.30
2018-07-31T09:25:19.944Z,22.36
2018-07-31T09:27:50.407Z,23.84
2018-07-31T09:30:20.877Z,25.23
2018-07-31T09:32:56.094Z,28.65
2018-07-31T09:35:26.388Z,27.12
2018-07-31T09:37:56.852Z,28.86
2018-07-31T09:40:27.241Z,27.68
2018-07-31T09:42:57.632Z,26.78
2018-07-31T09:45:27.945Z,26.51
2018-07-31T09:47:58.429Z,26.24
2018-07-31T09:50:29.214Z,27.32
2018-07-31T09:52:59.588Z,25.64
2018-07-31T09:55:29.937Z,24.63
2018-07-31T09:58:00.363Z,25.22
2018-07-31T10:00:36.186Z,26.04
2018-07-31T10:03:06.514Z,26.91
2018-07-31T10:05:36.788Z,28.24
2018-07-31T10:08:07.320Z,28.05
2018-07-31T10:10:37.733Z,29.63
2018-07-31T10:13:08.152Z,29.95
2018-07-31T10:15:38.590Z,29.81
2018-07-31T10:18:09.161Z,29.36
2018-07-31T10:20:39.594Z,30.05
2018-07-31T10:23:09.893Z,29.58
2018-07-31T10:25:40.337Z,28.88
2018-07-31T10:28:10.869Z,27.36
2018-07-31T10:30:41.329Z,26.79
2018-07-31T10:33:12.211Z,25.68
2018-07-31T10:35:42.713Z,25.48
2018-07-31T10:38:13.117Z,25.05
2018-07-31T10:40:43.333Z,25.62
2018-07-31T10:43:13.676Z,25.55
2018-07-31T10:45:44.035Z,26.21
2018-07-31T10:48:14.375Z,24.76
2018-07-31T10:50:44.591Z,26.11
2018-07-31T10:53:15.093Z,27.93
2018-07-31T10:55:45.572Z,29.02
2018-07-31T10:58:15.986Z,30.74
2018-07-31T11:00:46.249Z,30.90
2018-07-31T11:03:16.666Z,29.21
2018-07-31T11:05:47.046Z,29.57
2018-07-31T11:08:17.456Z,28.49
2018-07-31T11:10:47.831Z,28.10
2018-07-31T11:13:18.346Z,29.14
2018-07-31T11:15:49.259Z,29.53
2018-07-31T11:18:19.667Z,29.10
2018-07-31T11:20:50.118Z,27.79
2018-07-31T11:23:20.524Z,27.15
2018-07-31T11:25:50.845Z,26.16
2018-07-31T11:28:21.088Z,27.23
2018-07-31T11:30:51.325Z,25.21
2018-07-31T11:33:21.868Z,23.84
2018-07-31T11:35:52.428Z,23.76
2018-07-31T11:38:23.059Z,24.94
2018-07-31T11:40:53.329Z,24.83
2018-07-31T11:43:24.072Z,24.96
2018-07-31T11:45:54.528Z,24.98
2018-07-31T11:48:24.889Z,27.50
2018-07-31T11:50:55.592Z,28.43
2018-07-31T11:53:26.075Z,28.41
2018-07-31T11:55:56.458Z,27.16
2018-07-31T11:58:26.779Z,27.05
2018-07-31T12:00:57.124Z,29.77
2018-07-31T12:03:27.506Z,28.14
2018-07-31T12:05:58.576Z,28.18
2018-07-31T12:08:28.802Z,28.92
2018-07-31T12:10:59.172Z,29.74
2018-07-31T12:13:29.551Z,31.45
2018-07-31T12:16:00.920Z,33.88
2018-07-31T12:18:31.304Z,33.50
2018-07-31T12:21:01.934Z,34.32
2018-07-31T12:23:32.496Z,33.50
2018-07-31T12:26:03.118Z,32.76
2018-07-31T12:28:33.408Z,34.14
2018-07-31T12:31:03.815Z,34.62
2018-07-31T12:33:34.774Z,36.34
2018-07-31T12:36:06.714Z,37.33
2018-07-31T12:38:37.467Z,37.30
2018-07-31T12:41:07.912Z,37.82
2018-07-31T12:43:41.531Z,37.96
2018-07-31T12:46:12.882Z,38.04
2018-07-31T12:48:43.184Z,37.89
2018-07-31T12:51:13.676Z,37.80
2018-07-31T12:53:43.953Z,37.87
2018-07-31T12:56:14.399Z,39.27
2018-07-31T12:58:44.806Z,40.23
2018-07-31T13:01:15.096Z,40.60
2018-07-31T13:03:45.416Z,40.55
2018-07-31T13:06:15.906Z,41.05
2018-07-31T13:08:46.481Z,40.63
2018-07-31T13:11:16.960Z,40.23
2018-07-31T13:13:47.734Z,38.87
2018-07-31T13:16:18.279Z,41.51
2018-07-31T13:18:48.877Z,44.69
2018-07-31T13:21:19.148Z,45.15
2018-07-31T13:23:49.582Z,45.17
2018-07-31T13:26:19.852Z,45.36
2018-07-31T13:28:50.939Z,45.24
2018-07-31T13:31:21.528Z,44.01
2018-07-31T13:33:52.860Z,43.22
2018-07-31T13:36:23.651Z,42.33
2018-07-31T13:38:54.281Z,42.42
2018-07-31T13:41:25.761Z,42.10
2018-07-31T13:43:56.425Z,42.65
2018-07-31T13:46:27.055Z,41.89
2018-07-31T13:48:57.732Z,42.74
2018-07-31T13:51:28.278Z,44.81
2018-07-31T13:53:59.162Z,45.27
2018-07-31T13:56:30.409Z,44.15
2018-07-31T13:59:01.792Z,44.86
2018-07-31T14:01:32.854Z,46.00
2018-07-31T14:04:09.724Z,46.53
2018-07-31T14:06:40.843Z,47.03
2018-07-31T14:09:19.932Z,47.70
2018-07-31T14:11:50.674Z,51.62
2018-07-31T14:14:21.118Z,54.83
2018-07-31T14:16:51.788Z,60.96
2018-07-31T14:19:22.222Z,63.53
2018-07-31T14:21:52.655Z,67.31
2018-07-31T14:24:24.238Z,67.93
2018-07-31T14:26:54.950Z,67.79
2018-07-31T14:29:25.940Z,68.86
2018-07-31T14:31:56.543Z,71.84
2018-07-31T14:34:27.433Z,74.70
2018-07-31T14:36:57.991Z,75.88
2018-07-31T14:39:28.852Z,77.11
2018-07-31T14:41:59.524Z,75.53
2018-07-31T14:44:30.085Z,76.45
2018-07-31T14:47:01.386Z,76.78
2018-07-31T14:49:31.718Z,76.17
2018-07-31T14:52:02.186Z,75.45
2018-07-31T14:54:32.506Z,74.42
2018-07-31T14:57:04.381Z,74.28
2018-07-31T14:59:34.656Z,75.15
2018-07-31T15:02:04.986Z,76.43
2018-07-31T15:04:35.712Z,75.77
2018-07-31T15:07:06.773Z,76.93
2018-07-31T15:09:37.352Z,77.55
2018-07-31T15:12:08.091Z,78.93
2018-07-31T15:17:07.667Z,77.42
2018-07-31T15:19:38.356Z,77.25
2018-07-31T15:22:08.976Z,76.27
2018-07-31T15:24:39.560Z,75.80
2018-07-31T15:27:10.391Z,78.19
2018-07-31T15:29:41.036Z,80.39
2018-07-31T15:32:11.562Z,77.89
2018-07-31T15:34:42.314Z,74.87
2018-07-31T15:37:12.818Z,75.82
2018-07-31T15:39:43.498Z,72.78
2018-07-31T15:42:14.006Z,73.00
2018-07-31T15:44:44.609Z,71.73
2018-07-31T15:47:16.392Z,71.83
2018-07-31T15:49:46.861Z,69.43
2018-07-31T15:52:17.468Z,69.19
2018-07-31T15:54:48.147Z,68.37
2018-07-31T15:57:18.724Z,67.30
2018-07-31T15:59:50.280Z,68.56
2018-07-31T16:02:20.787Z,68.60
2018-07-31T16:04:51.188Z,68.21
2018-07-31T16:07:21.617Z,67.79
2018-07-31T16:09:52.112Z,69.79
2018-07-31T16:12:22.632Z,68.17
2018-07-31T16:14:53.057Z,65.70
2018-07-31T16:17:24.218Z,64.96
2018-07-31T16:19:54.788Z,64.37
2018-07-31T16:22:25.837Z,62.30
2018-07-31T16:24:56.641Z,62.81
2018-07-31T16:27:27.192Z,63.12
2018-07-31T16:29:57.796Z,64.85
2018-07-31T16:32:28.709Z,64.51
2018-07-31T16:34:59.320Z,63.89
2018-07-31T16:37:30.033Z,64.42
2018-07-31T16:40:00.699Z,65.10
2018-07-31T16:42:31.248Z,64.55
2018-07-31T16:45:01.849Z,64.53
2018-07-31T16:47:32.322Z,64.73
2018-07-31T16:50:04.722Z,63.46
2018-07-31T16:52:35.241Z,64.65
2018-07-31T16:55:05.761Z,64.99
2018-07-31T16:57:36.534Z,66.06
2018-07-31T17:00:07.794Z,65.06
2018-07-31T17:02:38.521Z,64.83
2018-07-31T17:05:09.083Z,64.19
2018-07-31T17:07:39.665Z,64.66
2018-07-31T17:10:10.212Z,64.08
2018-07-31T17:12:40.945Z,64.93
2018-07-31T17:15:11.478Z,64.81
2018-07-31T17:17:42.053Z,64.49
2018-07-31T17:20:12.377Z,65.36
2018-07-31T17:22:42.826Z,65.80
2018-07-31T17:25:13.374Z,66.39
2018-07-31T17:27:44.057Z,66.30
2018-07-31T17:30:14.665Z,67.20
2018-07-31T17:32:46.085Z,67.02
2018-07-31T17:35:16.431Z,67.27
2018-07-31T17:37:46.932Z,67.72
2018-07-31T17:40:17.374Z,66.98
2018-07-31T17:42:48.051Z,66.77
2018-07-31T17:45:18.556Z,65.03
2018-07-31T17:47:49.273Z,66.27
2018-07-31T17:50:19.970Z,66.16
2018-07-31T17:52:50.611Z,66.70
2018-07-31T17:55:21.008Z,66.54
2018-07-31T17:57:51.823Z,66.65
2018-07-31T18:00:23.345Z,66.14
2018-07-31T18:02:53.873Z,64.97
2018-07-31T18:05:24.467Z,64.50
2018-07-31T18:07:55.357Z,63.91
2018-07-31T18:10:26.218Z,63.58
2018-07-31T18:12:56.824Z,63.51
2018-07-31T18:15:28.269Z,63.15
2018-07-31T18:17:58.805Z,63.10
2018-07-31T18:20:29.624Z,63.67
2018-07-31T18:23:00.025Z,63.58
2018-07-31T18:25:30.707Z,64.49
2018-07-31T18:28:02.079Z,65.11
2018-07-31T18:30:33.527Z,66.31
2018-07-31T18:33:03.824Z,65.06
2018-07-31T18:35:34.283Z,63.94
2018-07-31T18:38:05.608Z,64.61
2018-07-31T18:40:36.409Z,64.86
2018-07-31T18:43:06.885Z,64.76
2018-07-31T18:45:37.574Z,64.76
2018-07-31T18:48:07.973Z,64.95
2018-07-31T18:50:39.178Z,64.92
2018-07-31T18:53:09.572Z,64.05
2018-07-31T18:55:40.829Z,64.18
2018-07-31T18:58:11.423Z,64.00
2018-07-31T19:00:41.929Z,64.53
2018-07-31T19:03:13.536Z,64.46
2018-07-31T19:05:44.091Z,66.19
2018-07-31T19:08:15.169Z,65.98
2018-07-31T19:10:46.293Z,66.62
2018-07-31T19:13:16.874Z,67.56
2018-07-31T19:15:47.474Z,69.14
2018-07-31T19:18:17.880Z,69.62
2018-07-31T19:20:48.381Z,70.93
2018-07-31T19:23:18.909Z,71.93
2018-07-31T19:25:49.497Z,73.55
2018-07-31T19:28:19.886Z,74.56
2018-07-31T19:30:50.420Z,75.17
2018-07-31T19:33:20.926Z,76.09
2018-07-31T19:35:51.551Z,76.63
2018-07-31T19:38:22.187Z,76.56
2018-07-31T19:40:52.781Z,78.11
2018-07-31T19:43:23.202Z,77.61
2018-07-31T19:45:53.806Z,77.02
2018-07-31T19:48:24.592Z,78.31
2018-07-31T19:50:55.051Z,77.44
2018-07-31T19:53:25.481Z,78.23
2018-07-31T19:55:56.466Z,78.34
2018-07-31T19:58:26.833Z,79.47
2018-07-31T20:00:57.114Z,80.38
2018-07-31T20:03:27.535Z,78.82
2018-07-31T20:05:58.267Z,79.14
2018-07-31T20:08:28.792Z,79.71
2018-07-31T20:10:59.180Z,79.96
2018-07-31T20:13:29.818Z,80.14
2018-07-31T20:16:00.401Z,80.04
2018-07-31T20:18:30.724Z,80.95
2018-07-31T20:21:01.292Z,81.57
2018-07-31T20:23:31.765Z,82.78
2018-07-31T20:26:02.301Z,83.33
2018-07-31T20:28:32.762Z,83.12
2018-07-31T20:31:03.373Z,82.27
2018-07-31T20:33:33.993Z,82.26
2018-07-31T20:36:04.442Z,82.92
2018-07-31T20:38:34.875Z,82.11
2018-07-31T20:41:05.509Z,81.92
2018-07-31T20:43:36.194Z,82.31
2018-07-31T20:46:06.993Z,82.92
2018-07-31T20:48:37.577Z,82.52
2018-07-31T20:51:09.090Z,82.93
2018-07-31T20:53:39.855Z,82.01
2018-07-31T20:56:10.200Z,81.87
2018-07-31T20:58:40.708Z,81.90
2018-07-31T21:01:11.089Z,81.23
2018-07-31T21:03:41.667Z,81.35
2018-07-31T21:06:12.128Z,81.52
2018-07-31T21:08:42.530Z,82.18
2018-07-31T21:11:12.909Z,82.33
2018-07-31T21:13:43.565Z,82.63
2018-07-31T21:16:14.284Z,82.69
2018-07-31T21:18:44.698Z,82.41
2018-07-31T21:21:15.242Z,82.57
2018-07-31T21:23:45.957Z,83.39
2018-07-31T21:26:17.189Z,82.19
2018-07-31T21:28:47.672Z,81.70
2018-07-31T21:31:18.224Z,80.94
2018-07-31T21:33:48.896Z,81.22
2018-07-31T21:36:20.389Z,80.42
2018-07-31T21:38:50.962Z,80.33
2018-07-31T21:41:21.473Z,80.86
2018-07-31T21:43:52.265Z,81.30
2018-07-31T21:46:22.928Z,81.07
2018-07-31T21:48:53.710Z,81.36
2018-07-31T21:51:24.043Z,81.29
2018-07-31T21:53:54.826Z,80.69
2018-07-31T21:56:25.300Z,80.64
2018-07-31T21:58:55.747Z,79.90
2018-07-31T22:01:26.368Z,79.89
2018-07-31T22:03:56.738Z,79.27
2018-07-31T22:06:27.447Z,79.73
2018-07-31T22:08:58.106Z,79.72
2018-07-31T22:11:28.767Z,79.90
2018-07-31T22:13:59.654Z,80.45
2018-07-31T22:16:30.271Z,81.16
2018-07-31T22:19:00.638Z,81.79
2018-07-31T22:21:31.268Z,80.72
2018-07-31T22:24:01.637Z,82.32
2018-07-31T22:26:32.010Z,82.15
2018-07-31T22:29:02.329Z,82.01
2018-07-31T22:31:32.742Z,82.02
2018-07-31T22:34:03.241Z,82.24
2018-07-31T22:36:33.719Z,82.13
2018-07-31T22:39:04.664Z,82.58
2018-07-31T22:41:35.089Z,82.25
2018-07-31T22:44:05.631Z,81.83
2018-07-31T22:46:36.017Z,81.89
2018-07-31T22:49:06.640Z,82.42
2018-07-31T22:51:37.334Z,83.02
2018-07-31T22:54:08.074Z,82.89
2018-07-31T22:56:38.440Z,83.20
2018-07-31T22:59:09.030Z,82.94
2018-07-31T23:01:39.703Z,83.20
2018-07-31T23:04:10.083Z,82.62
2018-07-31T23:06:40.820Z,83.67
2018-07-31T23:09:12.145Z,84.52
2018-07-31T23:11:42.755Z,84.79
2018-07-31T23:14:13.089Z,84.38
2018-07-31T23:16:43.572Z,85.09
2018-07-31T23:19:14.398Z,84.32
2018-07-31T23:21:44.798Z,85.52
2018-07-31T23:24:16.098Z,86.52
2018-07-31T23:26:46.565Z,86.63
2018-07-31T23:29:16.976Z,86.83
2018-07-31T23:31:47.418Z,86.14
2018-07-31T23:34:17.903Z,87.20
2018-07-31T23:36:48.398Z,87.58
2018-07-31T23:39:19.112Z,86.91
2018-07-31T23:41:49.451Z,87.43
2018-07-31T23:44:20.230Z,87.14
2018-07-31T23:46:50.586Z,87.13
2018-07-31T23:49:21.069Z,87.03
2018-07-31T23:51:52.392Z,86.45
2018-07-31T23:54:23.171Z,86.72
2018-07-31T23:56:53.888Z,86.82
2018-07-31T23:59:24.358Z,86.73
